createdAt,value
2023-05-04T00:00:48.462Z,10.57
2023-05-04T00:01:49.434Z,10.51
2023-05-04T00:02:50.598Z,10.61
2023-05-04T00:03:50.841Z,10.68
2023-05-04T00:04:50.909Z,10.64
2023-05-04T00:05:52.269Z,10.65
2023-05-04T00:06:52.354Z,10.68
2023-05-04T00:07:53.049Z,10.62
2023-05-04T00:08:53.735Z,10.58
2023-05-04T00:09:54.839Z,10.64
2023-05-04T00:10:54.579Z,10.51
2023-05-04T00:11:55.141Z,10.55
2023-05-04T00:12:56.159Z,10.53
2023-05-04T00:13:56.112Z,10.42
2023-05-04T00:14:56.583Z,10.41
2023-05-04T00:15:57.209Z,10.55
2023-05-04T00:16:57.570Z,10.43
2023-05-04T00:17:58.643Z,10.45
2023-05-04T00:18:59.372Z,10.39
2023-05-04T00:20:00.151Z,10.36
2023-05-04T00:21:01.315Z,10.38
2023-05-04T00:22:01.815Z,10.31
2023-05-04T00:23:02.864Z,10.38
2023-05-04T00:24:03.388Z,10.3
2023-05-04T00:25:03.979Z,10.28
2023-05-04T00:26:04.539Z,10.23
2023-05-04T00:27:04.998Z,10.31
2023-05-04T00:28:05.758Z,10.25
2023-05-04T00:29:05.665Z,10.12
2023-05-04T00:30:06.566Z,10.07
2023-05-04T00:31:06.480Z,10.13
2023-05-04T00:32:07.742Z,10.05
2023-05-04T00:33:08.479Z,10.05
2023-05-04T00:34:09.251Z,9.95
2023-05-04T00:35:09.772Z,9.92
2023-05-04T00:36:10.600Z,9.87
2023-05-04T00:37:11.085Z,9.84
2023-05-04T00:38:11.825Z,9.84
2023-05-04T00:39:12.582Z,9.9
2023-05-04T00:40:13.846Z,9.87
2023-05-04T00:41:13.593Z,9.82
2023-05-04T00:42:14.335Z,9.84
2023-05-04T00:43:14.787Z,9.84
2023-05-04T00:44:15.707Z,9.82
2023-05-04T00:45:16.192Z,9.82
2023-05-04T00:46:17.088Z,9.87
2023-05-04T00:47:17.600Z,9.91
2023-05-04T00:48:18.183Z,9.87
2023-05-04T00:49:18.687Z,9.87
2023-05-04T00:50:18.784Z,9.88
2023-05-04T00:51:19.326Z,9.82
2023-05-04T00:52:19.676Z,9.73
2023-05-04T00:53:20.193Z,9.77
2023-05-04T00:54:20.680Z,9.7
2023-05-04T00:55:21.693Z,9.74
2023-05-04T00:56:22.237Z,9.72
2023-05-04T00:57:22.737Z,9.73
2023-05-04T00:58:23.251Z,9.69
2023-05-04T00:59:23.959Z,9.74
2023-05-04T01:00:24.491Z,9.67
2023-05-04T01:01:25.344Z,9.62
2023-05-04T01:02:25.301Z,9.63
2023-05-04T01:03:26.195Z,9.69
2023-05-04T01:04:27.032Z,9.62
2023-05-04T01:05:27.723Z,9.62
2023-05-04T01:06:28.474Z,9.64
2023-05-04T01:07:29.409Z,9.62
2023-05-04T01:08:29.929Z,9.66
2023-05-04T01:09:30.633Z,9.64
2023-05-04T01:10:31.614Z,9.58
2023-05-04T01:11:31.686Z,9.54
2023-05-04T01:12:32.275Z,9.69
2023-05-04T01:13:32.901Z,9.69
2023-05-04T01:14:33.167Z,9.55
2023-05-04T01:15:33.874Z,9.58
2023-05-04T01:16:34.290Z,9.66
2023-05-04T01:17:35.424Z,9.59
2023-05-04T01:18:35.891Z,9.54
2023-05-04T01:19:36.602Z,9.56
2023-05-04T01:20:37.308Z,9.55
2023-05-04T01:21:38.232Z,9.55
2023-05-04T01:22:39.135Z,9.48
2023-05-04T01:23:39.419Z,9.52
2023-05-04T01:24:39.724Z,9.54
2023-05-04T01:25:40.683Z,9.56
2023-05-04T01:27:40.658Z,9.54
2023-05-04T01:28:41.152Z,9.52
2023-05-04T01:29:41.450Z,9.49
2023-05-04T01:30:42.005Z,9.51
2023-05-04T01:31:42.488Z,9.51
2023-05-04T01:32:43.744Z,9.59
2023-05-04T01:33:43.822Z,9.56
2023-05-04T01:34:44.559Z,9.52
2023-05-04T01:35:45.050Z,9.48
2023-05-04T01:36:45.553Z,9.56
2023-05-04T01:37:46.462Z,9.51
2023-05-04T01:38:47.551Z,9.54
2023-05-04T01:39:48.038Z,9.59
2023-05-04T01:40:48.967Z,9.52
2023-05-04T01:41:49.670Z,9.49
2023-05-04T01:42:50.374Z,9.49
2023-05-04T01:43:50.809Z,9.54
2023-05-04T01:44:50.690Z,9.51
2023-05-04T01:45:51.433Z,9.52
2023-05-04T01:46:52.084Z,9.49
2023-05-04T01:47:52.431Z,9.51
2023-05-04T01:48:53.134Z,9.48
2023-05-04T01:49:53.438Z,9.48
2023-05-04T01:50:54.137Z,9.42
2023-05-04T01:51:55.160Z,9.44
2023-05-04T01:52:56.049Z,9.4
2023-05-04T01:53:56.713Z,9.37
2023-05-04T01:54:56.804Z,9.44
2023-05-04T01:55:58.132Z,9.44
2023-05-04T01:57:57.960Z,9.4
2023-05-04T01:58:58.679Z,9.36
2023-05-04T01:59:59.394Z,9.37
2023-05-04T02:00:59.520Z,9.39
2023-05-04T02:02:00.521Z,9.34
2023-05-04T02:03:00.690Z,9.33
2023-05-04T02:04:01.995Z,9.34
2023-05-04T02:05:01.991Z,9.29
2023-05-04T02:06:02.714Z,9.31
2023-05-04T02:07:03.275Z,9.4
2023-05-04T02:08:04.375Z,9.39
2023-05-04T02:09:05.131Z,9.31
2023-05-04T02:10:05.955Z,9.34
2023-05-04T02:11:05.879Z,9.31
2023-05-04T02:12:06.789Z,9.29
2023-05-04T02:13:07.712Z,9.3
2023-05-04T02:14:08.401Z,9.29
2023-05-04T02:15:09.082Z,9.26
2023-05-04T02:16:09.655Z,9.22
2023-05-04T02:17:10.534Z,9.26
2023-05-04T02:18:11.441Z,9.29
2023-05-04T02:19:11.372Z,9.22
2023-05-04T02:20:12.379Z,9.21
2023-05-04T02:21:12.483Z,9.21
2023-05-04T02:22:13.312Z,9.27
2023-05-04T02:23:13.679Z,9.19
2023-05-04T02:24:14.553Z,9.24
2023-05-04T02:25:15.043Z,9.19
2023-05-04T02:26:16.218Z,9.16
2023-05-04T02:27:17.129Z,9.18
2023-05-04T02:28:17.616Z,9.22
2023-05-04T02:29:18.268Z,9.12
2023-05-04T02:30:18.974Z,9.18
2023-05-04T02:31:19.325Z,9.12
2023-05-04T02:32:20.468Z,9.11
2023-05-04T02:33:21.344Z,9.11
2023-05-04T02:34:21.682Z,9.12
2023-05-04T02:35:22.196Z,9.11
2023-05-04T02:36:22.714Z,9.13
2023-05-04T02:37:23.066Z,9.11
2023-05-04T02:38:23.770Z,9.11
2023-05-04T02:39:24.283Z,9.13
2023-05-04T02:40:25.283Z,9.12
2023-05-04T02:41:26.146Z,9.15
2023-05-04T02:42:26.661Z,9.27
2023-05-04T02:43:27.572Z,9.26
2023-05-04T02:44:27.809Z,9.24
2023-05-04T02:45:28.214Z,9.19
2023-05-04T02:46:29.563Z,9.24
2023-05-04T02:47:29.672Z,9.31
2023-05-04T02:48:29.480Z,9.26
2023-05-04T02:49:30.768Z,9.31
2023-05-04T02:50:31.056Z,9.24
2023-05-04T02:51:31.347Z,9.31
2023-05-04T02:52:31.880Z,9.29
2023-05-04T02:53:32.569Z,9.24
2023-05-04T02:54:33.494Z,9.26
2023-05-04T02:55:34.010Z,9.21
2023-05-04T02:56:35.030Z,9.22
2023-05-04T02:57:35.533Z,9.31
2023-05-04T02:58:36.258Z,9.33
2023-05-04T02:59:36.956Z,9.27
2023-05-04T03:00:37.858Z,9.26
2023-05-04T03:01:40.811Z,9.21
2023-05-04T03:03:39.518Z,9.11
2023-05-04T03:04:39.893Z,9.13
2023-05-04T03:05:40.830Z,9.11
2023-05-04T03:06:41.339Z,9.11
2023-05-04T03:07:42.119Z,9.11
2023-05-04T03:08:43.016Z,9.09
2023-05-04T03:09:47.493Z,9.05
2023-05-04T03:10:44.362Z,9.03
2023-05-04T03:11:45.125Z,9
2023-05-04T03:12:45.790Z,8.95
2023-05-04T03:13:46.229Z,8.97
2023-05-04T03:14:46.472Z,8.97
2023-05-04T03:15:47.182Z,9.02
2023-05-04T03:16:47.787Z,8.97
2023-05-04T03:17:48.697Z,9.03
2023-05-04T03:19:01.870Z,9.05
2023-05-04T03:20:49.725Z,9
2023-05-04T03:21:50.037Z,8.92
2023-05-04T03:22:50.781Z,8.93
2023-05-04T03:23:51.671Z,8.81
2023-05-04T03:24:52.721Z,8.9
2023-05-04T03:25:53.404Z,8.9
2023-05-04T03:26:54.453Z,8.86
2023-05-04T03:27:55.367Z,8.86
2023-05-04T03:28:55.865Z,8.84
2023-05-04T03:29:56.353Z,8.89
2023-05-04T03:30:56.597Z,8.86
2023-05-04T03:31:57.241Z,8.81
2023-05-04T03:32:57.442Z,8.79
2023-05-04T03:33:58.590Z,8.74
2023-05-04T03:34:59.027Z,8.68
2023-05-04T03:35:59.935Z,8.66
2023-05-04T03:37:00.238Z,8.59
2023-05-04T03:38:01.188Z,8.59
2023-05-04T03:39:02.108Z,8.57
2023-05-04T03:40:02.868Z,8.61
2023-05-04T03:41:02.949Z,8.61
2023-05-04T03:42:03.907Z,8.6
2023-05-04T03:43:04.794Z,8.64
2023-05-04T03:44:05.493Z,8.57
2023-05-04T03:45:06.744Z,8.61
2023-05-04T03:46:06.693Z,8.61
2023-05-04T03:47:06.983Z,8.59
2023-05-04T03:48:07.606Z,8.64
2023-05-04T03:49:08.686Z,8.6
2023-05-04T03:50:09.319Z,8.6
2023-05-04T03:51:09.253Z,8.53
2023-05-04T03:52:10.159Z,8.46
2023-05-04T03:53:10.862Z,8.52
2023-05-04T03:54:10.959Z,8.56
2023-05-04T03:55:11.512Z,8.5
2023-05-04T03:56:11.992Z,8.45
2023-05-04T03:57:12.864Z,8.41
2023-05-04T03:58:13.161Z,8.44
2023-05-04T03:59:14.054Z,8.44
2023-05-04T04:00:14.756Z,8.38
2023-05-04T04:01:15.457Z,8.42
2023-05-04T04:02:16.281Z,8.38
2023-05-04T04:03:17.525Z,8.45
2023-05-04T04:04:16.972Z,8.42
2023-05-04T04:05:17.517Z,8.44
2023-05-04T04:06:18.237Z,8.39
2023-05-04T04:07:18.944Z,8.32
2023-05-04T04:08:19.085Z,8.35
2023-05-04T04:09:19.597Z,8.38
2023-05-04T04:10:20.487Z,8.46
2023-05-04T04:11:21.167Z,8.39
2023-05-04T04:12:21.941Z,8.39
2023-05-04T04:13:22.580Z,8.39
2023-05-04T04:14:22.905Z,8.52
2023-05-04T04:15:23.421Z,8.57
2023-05-04T04:16:24.053Z,8.42
2023-05-04T04:17:25.000Z,8.46
2023-05-04T04:18:24.779Z,8.49
2023-05-04T04:19:25.530Z,8.46
2023-05-04T04:20:26.032Z,8.56
2023-05-04T04:21:26.533Z,8.54
2023-05-04T04:22:26.636Z,8.57
2023-05-04T04:23:27.586Z,8.53
2023-05-04T04:24:28.085Z,8.5
2023-05-04T04:25:28.457Z,8.54
2023-05-04T04:26:29.184Z,8.61
2023-05-04T04:27:29.953Z,8.57
2023-05-04T04:28:30.676Z,8.63
2023-05-04T04:29:30.981Z,8.6
2023-05-04T04:30:31.567Z,8.63
2023-05-04T04:31:32.433Z,8.66
2023-05-04T04:32:33.366Z,8.71
2023-05-04T04:33:34.162Z,8.63
2023-05-04T04:34:34.894Z,8.64
2023-05-04T04:35:35.615Z,8.66
2023-05-04T04:36:36.316Z,8.68
2023-05-04T04:37:37.049Z,8.64
2023-05-04T04:38:37.989Z,8.75
2023-05-04T04:39:39.128Z,8.64
2023-05-04T04:40:39.713Z,8.64
2023-05-04T04:41:39.989Z,8.72
2023-05-04T04:42:40.746Z,8.78
2023-05-04T04:43:41.040Z,8.79
2023-05-04T04:44:41.115Z,8.77
2023-05-04T04:45:42.407Z,8.82
2023-05-04T04:46:43.257Z,8.75
2023-05-04T04:47:43.769Z,8.86
2023-05-04T04:48:44.815Z,8.79
2023-05-04T04:49:45.380Z,8.78
2023-05-04T04:50:46.294Z,8.93
2023-05-04T04:51:47.003Z,8.93
2023-05-04T04:52:47.536Z,8.93
2023-05-04T04:53:48.266Z,8.95
2023-05-04T04:54:48.332Z,8.96
2023-05-04T04:55:48.586Z,8.97
2023-05-04T04:56:49.291Z,9.11
2023-05-04T04:57:50.276Z,9.09
2023-05-04T04:58:50.784Z,9.13
2023-05-04T04:59:51.478Z,9.13
2023-05-04T05:00:52.146Z,9.11
2023-05-04T05:01:53.157Z,9.08
2023-05-04T05:02:53.744Z,9.11
2023-05-04T05:03:54.600Z,9.22
2023-05-04T05:04:55.492Z,9.21
2023-05-04T05:05:56.120Z,9.33
2023-05-04T05:06:57.096Z,9.3
2023-05-04T05:07:57.419Z,9.29
2023-05-04T05:08:58.332Z,9.34
2023-05-04T05:09:58.629Z,9.37
2023-05-04T05:11:00.079Z,9.39
2023-05-04T05:12:00.796Z,9.44
2023-05-04T05:13:01.913Z,9.44
2023-05-04T05:14:02.486Z,9.52
2023-05-04T05:15:03.026Z,9.49
2023-05-04T05:16:03.304Z,9.54
2023-05-04T05:17:03.984Z,9.63
2023-05-04T05:18:05.146Z,9.67
2023-05-04T05:19:04.771Z,9.64
2023-05-04T05:20:06.167Z,9.72
2023-05-04T05:21:07.004Z,9.8
2023-05-04T05:22:07.305Z,9.85
2023-05-04T05:23:07.995Z,9.84
2023-05-04T05:24:08.588Z,9.81
2023-05-04T05:25:09.328Z,9.91
2023-05-04T05:26:09.558Z,9.95
2023-05-04T05:27:10.268Z,10.06
2023-05-04T05:28:11.246Z,10.1
2023-05-04T05:29:11.974Z,10.12
2023-05-04T05:30:12.632Z,10.25
2023-05-04T05:31:12.448Z,10.27
2023-05-04T05:32:13.101Z,10.25
2023-05-04T05:33:14.135Z,10.31
2023-05-04T05:34:14.634Z,10.36
2023-05-04T05:35:15.403Z,10.46
2023-05-04T05:36:16.146Z,10.49
2023-05-04T05:37:17.061Z,10.53
2023-05-04T05:38:18.151Z,10.55
2023-05-04T05:39:18.693Z,10.61
2023-05-04T05:40:19.488Z,10.57
2023-05-04T05:41:20.381Z,10.64
2023-05-04T05:42:21.091Z,10.62
2023-05-04T05:43:21.368Z,10.72
2023-05-04T05:44:21.673Z,10.72
2023-05-04T05:45:22.413Z,10.79
2023-05-04T05:46:22.696Z,10.8
2023-05-04T05:47:23.098Z,10.95
2023-05-04T05:48:23.477Z,10.86
2023-05-04T05:49:24.188Z,10.95
2023-05-04T05:50:24.054Z,10.92
2023-05-04T05:51:24.166Z,10.95
2023-05-04T05:52:24.694Z,10.97
2023-05-04T05:53:25.416Z,10.92
2023-05-04T05:54:26.341Z,10.95
2023-05-04T05:55:26.272Z,11.07
2023-05-04T05:56:26.881Z,11.05
2023-05-04T05:57:27.594Z,11
2023-05-04T05:58:27.802Z,11.05
2023-05-04T05:59:28.715Z,11.01
2023-05-04T06:00:29.015Z,11.05
2023-05-04T06:01:29.960Z,11.05
2023-05-04T06:02:29.927Z,11.07
2023-05-04T06:03:31.244Z,11.08
2023-05-04T06:04:31.585Z,11.18
2023-05-04T06:05:31.427Z,11.23
2023-05-04T06:06:32.649Z,11.22
2023-05-04T06:07:33.295Z,11.34
2023-05-04T06:08:33.220Z,11.33
2023-05-04T06:09:34.188Z,11.41
2023-05-04T06:10:34.967Z,11.55
2023-05-04T06:11:35.830Z,11.6
2023-05-04T06:12:36.844Z,11.63
2023-05-04T06:13:37.280Z,11.63
2023-05-04T06:14:38.191Z,11.74
2023-05-04T06:15:39.024Z,11.81
2023-05-04T06:16:40.012Z,11.91
2023-05-04T06:17:41.015Z,11.86
2023-05-04T06:18:41.032Z,12.05
2023-05-04T06:19:41.522Z,12.14
2023-05-04T06:20:42.148Z,12.23
2023-05-04T06:21:42.653Z,12.17
2023-05-04T06:22:43.155Z,12.3
2023-05-04T06:23:43.683Z,12.43
2023-05-04T06:24:44.605Z,12.36
2023-05-04T06:25:45.073Z,12.5
2023-05-04T06:26:45.357Z,12.57
2023-05-04T06:27:45.975Z,12.51
2023-05-04T06:28:46.806Z,12.66
2023-05-04T06:29:47.745Z,12.78
2023-05-04T06:30:48.499Z,12.75
2023-05-04T06:31:50.935Z,12.87
2023-05-04T06:33:50.190Z,12.98
2023-05-04T06:34:50.689Z,13.02
2023-05-04T06:35:51.575Z,13.06
2023-05-04T06:36:52.095Z,13.16
2023-05-04T06:37:53.051Z,13.21
2023-05-04T06:38:53.268Z,13.28
2023-05-04T06:39:53.986Z,13.27
2023-05-04T06:40:54.936Z,13.26
2023-05-04T06:41:55.965Z,13.37
2023-05-04T06:42:55.963Z,13.54
2023-05-04T06:43:59.336Z,13.55
2023-05-04T06:44:57.483Z,13.58
2023-05-04T06:45:58.021Z,13.6
2023-05-04T06:46:59.218Z,13.71
2023-05-04T06:47:59.807Z,13.73
2023-05-04T06:49:00.601Z,13.83
2023-05-04T06:50:01.181Z,13.87
2023-05-04T06:51:03.309Z,13.93
2023-05-04T06:52:01.828Z,14.07
2023-05-04T06:53:02.740Z,14
2023-05-04T06:54:02.656Z,14.25
2023-05-04T06:55:03.000Z,14.25
2023-05-04T06:56:03.714Z,14.3
2023-05-04T06:57:04.175Z,14.43
2023-05-04T06:58:05.286Z,14.63
2023-05-04T06:59:06.137Z,15.04
2023-05-04T07:00:06.701Z,15.57
2023-05-04T07:01:06.564Z,16.06
2023-05-04T07:02:06.944Z,16.66
2023-05-04T07:03:08.175Z,17.09
2023-05-04T07:04:08.404Z,17.75
2023-05-04T07:05:08.335Z,18.03
2023-05-04T07:06:09.167Z,18.51
2023-05-04T07:07:09.784Z,18.78
2023-05-04T07:08:10.914Z,19.11
2023-05-04T07:09:11.598Z,19.52
2023-05-04T07:10:12.659Z,19.82
2023-05-04T07:11:13.580Z,20.24
2023-05-04T07:12:13.531Z,20.4
2023-05-04T07:13:14.362Z,20.59
2023-05-04T07:14:16.521Z,20.71
2023-05-04T07:16:16.084Z,20.59
2023-05-04T07:18:16.794Z,20.33
2023-05-04T07:19:16.733Z,20.39
2023-05-04T07:20:17.748Z,20.26
2023-05-04T07:21:33.244Z,20.24
2023-05-04T07:23:19.512Z,19.84
2023-05-04T07:24:19.993Z,19.79
2023-05-04T07:25:20.742Z,19.57
2023-05-04T07:26:21.297Z,19.35
2023-05-04T07:27:22.509Z,19.05
2023-05-04T07:28:23.260Z,18.76
2023-05-04T07:29:24.238Z,18.78
2023-05-04T07:30:24.322Z,18.66
2023-05-04T07:31:25.439Z,18.68
2023-05-04T07:32:25.730Z,18.67
2023-05-04T07:33:25.680Z,18.71
2023-05-04T07:34:45.923Z,18.79
2023-05-04T07:35:27.021Z,18.85
2023-05-04T07:36:27.703Z,18.92
2023-05-04T07:37:28.769Z,19.01
2023-05-04T07:38:28.619Z,19.09
2023-05-04T07:39:29.144Z,19.23
2023-05-04T07:40:29.748Z,19.24
2023-05-04T07:41:30.755Z,19.35
2023-05-04T07:42:31.467Z,19.32
2023-05-04T07:43:32.208Z,19.38
2023-05-04T07:44:32.981Z,19.38
2023-05-04T07:45:33.973Z,19.45
2023-05-04T07:46:34.807Z,19.47
2023-05-04T07:47:35.278Z,19.47
2023-05-04T07:48:36.089Z,19.44
2023-05-04T07:49:36.003Z,19.44
2023-05-04T07:50:36.682Z,19.47
2023-05-04T07:51:37.759Z,19.41
2023-05-04T07:52:38.963Z,19.41
2023-05-04T07:53:39.473Z,19.42
2023-05-04T07:54:40.228Z,19.29
2023-05-04T07:55:40.948Z,19.34
2023-05-04T07:56:41.673Z,19.34
2023-05-04T07:57:42.327Z,19.27
2023-05-04T07:58:42.821Z,19.3
2023-05-04T07:59:44.045Z,19.34
2023-05-04T08:00:44.395Z,19.34
2023-05-04T08:01:47.084Z,19.24
2023-05-04T08:03:47.167Z,19.23
2023-05-04T08:04:47.872Z,19.22
2023-05-04T08:05:48.409Z,19.2
2023-05-04T08:06:49.053Z,19.2
2023-05-04T08:07:49.429Z,19.23
2023-05-04T08:08:53.153Z,19.23
2023-05-04T08:09:51.058Z,19.45
2023-05-04T08:10:51.459Z,19.42
2023-05-04T08:11:53.345Z,19.49
2023-05-04T08:12:53.373Z,19.47
2023-05-04T08:13:53.467Z,19.52
2023-05-04T08:14:54.886Z,19.64
2023-05-04T08:15:55.060Z,19.67
2023-05-04T08:16:56.112Z,19.66
2023-05-04T08:17:56.216Z,19.79
2023-05-04T08:18:56.399Z,19.89
2023-05-04T08:19:57.589Z,20
2023-05-04T08:20:57.807Z,19.96
2023-05-04T08:21:58.038Z,20
2023-05-04T08:22:59.612Z,19.99
2023-05-04T08:23:59.045Z,20.03
2023-05-04T08:24:59.792Z,20.04
2023-05-04T08:26:00.818Z,20.07
2023-05-04T08:27:13.900Z,20.08
2023-05-04T08:29:02.050Z,20.04
2023-05-04T08:30:03.098Z,20.1
2023-05-04T08:31:04.025Z,20.17
2023-05-04T08:32:04.417Z,20.19
2023-05-04T08:33:04.430Z,20.19
2023-05-04T08:34:05.287Z,20.3
2023-05-04T08:35:06.398Z,20.26
2023-05-04T08:36:07.283Z,20.37
2023-05-04T08:37:08.145Z,20.49
2023-05-04T08:38:08.918Z,20.58
2023-05-04T08:39:09.439Z,20.63
2023-05-04T08:40:10.389Z,20.78
2023-05-04T08:41:11.538Z,20.9
2023-05-04T08:42:11.463Z,20.89
2023-05-04T08:43:12.597Z,20.83
2023-05-04T08:44:13.495Z,20.86
2023-05-04T08:45:14.100Z,20.86
2023-05-04T08:46:14.670Z,20.96
2023-05-04T08:47:15.529Z,21.01
2023-05-04T08:48:16.069Z,21.25
2023-05-04T08:49:15.792Z,21.45
2023-05-04T08:50:16.525Z,21.65
2023-05-04T08:51:17.251Z,21.92
2023-05-04T08:52:18.355Z,22.07
2023-05-04T08:53:19.113Z,22.41
2023-05-04T08:54:19.092Z,22.62
2023-05-04T08:55:20.124Z,22.88
2023-05-04T08:56:20.822Z,22.93
2023-05-04T08:57:21.281Z,23.1
2023-05-04T08:58:21.768Z,23.11
2023-05-04T08:59:22.275Z,23.2
2023-05-04T09:00:23.560Z,23.18
2023-05-04T09:01:23.896Z,23.26
2023-05-04T09:02:24.598Z,23.4
2023-05-04T09:03:25.766Z,23.39
2023-05-04T09:04:29.590Z,23.62
2023-05-04T09:05:26.364Z,23.82
2023-05-04T09:06:27.511Z,24.14
2023-05-04T09:07:27.862Z,24.41
2023-05-04T09:08:27.933Z,24.55
2023-05-04T09:09:28.907Z,24.82
2023-05-04T09:10:30.069Z,25.18
2023-05-04T09:11:30.957Z,25.29
2023-05-04T09:12:31.027Z,25.54
2023-05-04T09:13:32.106Z,25.66
2023-05-04T09:14:32.884Z,25.99
2023-05-04T09:15:34.003Z,26.16
2023-05-04T09:16:33.856Z,26.26
2023-05-04T09:17:47.597Z,26.31
2023-05-04T09:18:41.996Z,26.33
2023-05-04T09:19:42.859Z,26.44
2023-05-04T09:20:43.588Z,26.44
2023-05-04T09:21:44.399Z,26.6
2023-05-04T09:22:44.840Z,26.6
2023-05-04T09:23:45.844Z,26.56
2023-05-04T09:24:46.192Z,26.52
2023-05-04T09:25:46.963Z,26.42
2023-05-04T09:26:47.958Z,26.55
2023-05-04T09:27:48.485Z,26.67
2023-05-04T09:28:49.185Z,26.7
2023-05-04T09:29:50.330Z,26.73
2023-05-04T09:30:50.954Z,26.92
2023-05-04T09:31:51.398Z,27.16
2023-05-04T09:32:52.500Z,27.13
2023-05-04T09:33:54.095Z,27.35
2023-05-04T09:34:52.892Z,27.45
2023-05-04T09:35:53.770Z,27.52
2023-05-04T09:36:54.290Z,27.58
2023-05-04T09:37:55.301Z,27.79
2023-05-04T09:38:55.604Z,27.88
2023-05-04T09:39:56.377Z,27.97
2023-05-04T09:40:57.338Z,28.04
2023-05-04T09:41:57.694Z,28.09
2023-05-04T09:42:57.448Z,28.06
2023-05-04T09:43:57.952Z,28.08
2023-05-04T09:44:58.673Z,28.12
2023-05-04T09:45:59.630Z,28.04
2023-05-04T09:46:59.654Z,28.01
2023-05-04T09:48:00.706Z,28
2023-05-04T09:50:01.533Z,28.16
2023-05-04T09:51:02.200Z,28.03
2023-05-04T09:52:03.595Z,27.94
2023-05-04T09:53:03.584Z,27.93
2023-05-04T09:54:04.494Z,28.01
2023-05-04T09:55:05.680Z,28
2023-05-04T09:56:08.728Z,27.9
2023-05-04T09:58:07.268Z,28.03
2023-05-04T09:59:07.939Z,28.12
2023-05-04T10:00:08.266Z,28.33
2023-05-04T10:01:09.761Z,28.49
2023-05-04T10:02:24.609Z,28.59
2023-05-04T10:04:11.010Z,28.2
2023-05-04T10:05:12.123Z,28.18
2023-05-04T10:06:12.435Z,27.93
2023-05-04T10:07:12.975Z,27.76
2023-05-04T10:08:13.783Z,27.68
2023-05-04T10:09:14.961Z,27.52
2023-05-04T10:10:15.125Z,27.5
2023-05-04T10:11:16.077Z,27.6
2023-05-04T10:12:17.087Z,27.66
2023-05-04T10:13:17.242Z,27.71
2023-05-04T10:14:17.364Z,27.38
2023-05-04T10:15:18.314Z,27.1
2023-05-04T10:16:19.502Z,27.08
2023-05-04T10:17:19.823Z,27.19
2023-05-04T10:18:20.149Z,27.25
2023-05-04T10:19:20.736Z,27.52
2023-05-04T10:20:21.686Z,27.66
2023-05-04T10:21:22.208Z,27.47
2023-05-04T10:22:22.928Z,27.58
2023-05-04T10:23:24.457Z,27.68
2023-05-04T10:24:23.160Z,27.58
2023-05-04T10:25:24.149Z,27.61
2023-05-04T10:26:24.499Z,27.6
2023-05-04T10:27:25.303Z,27.64
2023-05-04T10:28:26.237Z,27.75
2023-05-04T10:29:29.410Z,27.82
2023-05-04T10:31:28.651Z,28.09
2023-05-04T10:32:28.598Z,28.04
2023-05-04T10:33:29.295Z,28
2023-05-04T10:34:29.928Z,27.72
2023-05-04T10:35:30.550Z,27.43
2023-05-04T10:36:31.322Z,27.26
2023-05-04T10:37:32.072Z,27.03
2023-05-04T10:38:33.255Z,27
2023-05-04T10:39:33.725Z,27.15
2023-05-04T10:40:34.694Z,27.11
2023-05-04T10:41:35.483Z,27.13
2023-05-04T10:42:36.432Z,27.11
2023-05-04T10:43:36.360Z,27.3
2023-05-04T10:44:37.571Z,27.5
2023-05-04T10:45:38.498Z,27.6
2023-05-04T10:46:39.520Z,27.71
2023-05-04T10:47:39.440Z,27.61
2023-05-04T10:48:40.123Z,27.45
2023-05-04T10:49:40.969Z,27.48
2023-05-04T10:50:41.718Z,27.38
2023-05-04T10:51:54.922Z,27.3
2023-05-04T10:53:43.931Z,27.48
2023-05-04T10:54:44.656Z,27.34
2023-05-04T10:55:45.201Z,27.37
2023-05-04T10:56:46.163Z,27.28
2023-05-04T10:57:46.505Z,27.41
2023-05-04T10:58:47.290Z,27.38
2023-05-04T10:59:47.754Z,27.43
2023-05-04T11:00:48.871Z,27.53
2023-05-04T11:01:49.167Z,27.3
2023-05-04T11:02:49.928Z,27.22
2023-05-04T11:03:49.973Z,27.23
2023-05-04T11:04:50.631Z,27.29
2023-05-04T11:05:51.300Z,27.4
2023-05-04T11:06:52.095Z,27.26
2023-05-04T11:07:51.852Z,27.29
2023-05-04T11:08:52.808Z,27.23
2023-05-04T11:09:53.442Z,27.3
2023-05-04T11:10:54.003Z,27.29
2023-05-04T11:11:54.606Z,27.2
2023-05-04T11:12:55.378Z,27.13
2023-05-04T11:13:55.353Z,27.01
2023-05-04T11:14:56.067Z,26.96
2023-05-04T11:15:56.347Z,26.97
2023-05-04T11:16:57.451Z,27.03
2023-05-04T11:17:57.847Z,27
2023-05-04T11:18:58.547Z,26.98
2023-05-04T11:19:59.016Z,26.93
2023-05-04T11:20:59.728Z,27.07
2023-05-04T11:21:59.953Z,27.13
2023-05-04T11:23:00.528Z,27.18
2023-05-04T11:24:01.354Z,27.35
2023-05-04T11:25:02.335Z,27.4
2023-05-04T11:26:03.138Z,27.44
2023-05-04T11:27:03.807Z,27.52
2023-05-04T11:28:04.696Z,27.55
2023-05-04T11:29:05.069Z,27.6
2023-05-04T11:30:06.004Z,27.41
2023-05-04T11:31:08.288Z,27.25
2023-05-04T11:33:08.036Z,27.29
2023-05-04T11:34:08.611Z,27.4
2023-05-04T11:35:09.814Z,27.48
2023-05-04T11:36:09.356Z,27.52
2023-05-04T11:37:09.859Z,27.48
2023-05-04T11:38:10.154Z,27.41
2023-05-04T11:39:11.171Z,27.07
2023-05-04T11:40:12.074Z,26.93
2023-05-04T11:41:12.824Z,26.74
2023-05-04T11:42:13.756Z,26.67
2023-05-04T11:43:14.601Z,26.67
2023-05-04T11:44:15.329Z,26.64
2023-05-04T11:45:16.400Z,26.67
2023-05-04T11:46:17.431Z,26.92
2023-05-04T11:47:17.909Z,27.01
2023-05-04T11:48:19.377Z,27.18
2023-05-04T11:49:19.368Z,27.08
2023-05-04T11:50:20.185Z,27.1
2023-05-04T11:51:20.349Z,27.04
2023-05-04T11:52:20.755Z,27
2023-05-04T11:53:21.506Z,27.16
2023-05-04T11:54:22.836Z,27.26
2023-05-04T11:55:23.586Z,27.4
2023-05-04T11:56:24.361Z,27.43
2023-05-04T11:57:24.489Z,27.63
2023-05-04T11:58:24.873Z,27.6
2023-05-04T11:59:25.801Z,27.58
2023-05-04T12:00:26.230Z,27.55
2023-05-04T12:01:26.741Z,27.5
2023-05-04T12:02:28.446Z,27.38
2023-05-04T12:03:53.548Z,27.3
2023-05-04T12:05:29.661Z,27.47
2023-05-04T12:06:30.504Z,27.43
2023-05-04T12:07:30.658Z,27.4
2023-05-04T12:08:31.185Z,27.38
2023-05-04T12:09:32.306Z,27.4
2023-05-04T12:10:32.088Z,27.28
2023-05-04T12:11:32.617Z,27.3
2023-05-04T12:12:33.983Z,27.3
2023-05-04T12:13:33.894Z,27.23
2023-05-04T12:14:34.820Z,27.1
2023-05-04T12:15:35.766Z,27
2023-05-04T12:16:36.854Z,27
2023-05-04T12:17:37.155Z,26.98
2023-05-04T12:18:37.239Z,27.07
2023-05-04T12:19:38.223Z,27.15
2023-05-04T12:20:38.389Z,27.26
2023-05-04T12:21:39.124Z,27.26
2023-05-04T12:22:40.093Z,27.45
2023-05-04T12:23:40.837Z,27.45
2023-05-04T12:24:41.113Z,27.45
2023-05-04T12:25:58.679Z,27.43
2023-05-04T12:27:42.080Z,27.5
2023-05-04T12:28:43.107Z,27.55
2023-05-04T12:29:43.283Z,27.67
2023-05-04T12:30:44.141Z,27.68
2023-05-04T12:31:44.807Z,27.75
2023-05-04T12:32:45.946Z,27.75
2023-05-04T12:33:45.699Z,27.82
2023-05-04T12:34:46.617Z,27.88
2023-05-04T12:35:47.386Z,28
2023-05-04T12:36:47.499Z,27.93
2023-05-04T12:37:48.025Z,27.88
2023-05-04T12:38:48.961Z,27.93
2023-05-04T12:39:49.106Z,27.82
2023-05-04T12:40:49.723Z,27.78
2023-05-04T12:41:50.658Z,27.73
2023-05-04T12:42:51.606Z,27.81
2023-05-04T12:43:52.580Z,27.88
2023-05-04T12:44:53.121Z,27.94
2023-05-04T12:45:54.193Z,28.06
2023-05-04T12:46:54.827Z,28.12
2023-05-04T12:47:55.845Z,28.2
2023-05-04T12:48:55.757Z,28.2
2023-05-04T12:49:56.308Z,28.03
2023-05-04T12:50:57.195Z,28.18
2023-05-04T12:51:57.902Z,28.06
2023-05-04T12:52:58.495Z,27.9
2023-05-04T12:53:59.650Z,27.82
2023-05-04T12:55:00.489Z,27.61
2023-05-04T12:56:00.895Z,27.41
2023-05-04T12:57:01.222Z,27.08
2023-05-04T12:58:02.425Z,27
2023-05-04T12:59:02.624Z,26.91
2023-05-04T13:00:02.818Z,26.7
2023-05-04T13:01:03.747Z,26.82
2023-05-04T13:02:04.645Z,26.85
2023-05-04T13:03:05.138Z,26.88
2023-05-04T13:04:05.295Z,26.92
2023-05-04T13:05:06.506Z,26.96
2023-05-04T13:06:06.367Z,26.68
2023-05-04T13:07:07.301Z,26.83
2023-05-04T13:08:08.045Z,26.92
2023-05-04T13:09:08.365Z,26.79
2023-05-04T13:10:09.676Z,26.83
2023-05-04T13:11:09.693Z,26.79
2023-05-04T13:12:10.018Z,26.79
2023-05-04T13:13:10.685Z,26.67
2023-05-04T13:14:10.779Z,26.66
2023-05-04T13:15:10.702Z,26.67
2023-05-04T13:16:12.052Z,26.78
2023-05-04T13:17:12.420Z,26.78
2023-05-04T13:18:13.645Z,26.93
2023-05-04T13:19:13.369Z,27.01
2023-05-04T13:20:14.264Z,27.08
2023-05-04T13:21:14.953Z,27.26
2023-05-04T13:22:15.933Z,27.22
2023-05-04T13:23:16.899Z,27.03
2023-05-04T13:24:17.443Z,26.93
2023-05-04T13:25:18.234Z,26.96
2023-05-04T13:26:18.942Z,26.93
2023-05-04T13:27:19.707Z,26.97
2023-05-04T13:28:20.471Z,27.15
2023-05-04T13:29:21.240Z,27.1
2023-05-04T13:30:22.405Z,27.19
2023-05-04T13:31:23.028Z,27.23
2023-05-04T13:32:23.566Z,27.26